Terminal Aerodrome Forecast
Issued by NWS

Home | Current Version | Previous Version | Graphics & Text | Print | Product List | Glossary On
Versions: 1 2 3 4 5 6 7 8 9 10 11 12 13 14
000
FTUS43 KMPX 070500
TAFAXN
TAF
KAXN 070520Z 0706/0806 29005KT P6SM BKN150
     FM071100 29007KT P6SM VCSH SCT050 BKN080
     FM071500 30010KT P6SM SCT040 BKN080 PROB30 0719/0724 3SM -TSRA
      OVC025CB=

USA.gov is the U.S. government's official web portal to all federal, state and local government web resources and services.